Regina — 3EUK3 — position and weather

sailwx.info

Track history (hours):
 
Tides and Currents Weather Stations Pressure Air Temp Water Temp Dewpoint Dewpoint Depression Visibility Wind Speed Wind Dir Waves Ship Positions

Regina

Last reported at 2015-May-24 08:11 UTC. Time now 2015-May-25 05:33 UTC.
Position N 22°48' E 119°40'.

Length 180 m; draft 7.1 m.

Type: Cargo ship. MMSI: 371937000.

Date/timePositionNaut miles runAvg speedWind from/ knotsBaromVisibWave heightAir tempDewpointWater temp
2015-May-24 08:11N 22°48' E 119°40'710.8
2015-May-24 07:31N 22°54' E 119°45'49811.8
2015-May-22 13:16N 30°32' E 123°21'1112.9
2015-May-22 12:27N 30°43' E 123°22'1413.0
2015-May-22 11:23N 30°56' E 123°17'1712.8
2015-May-22 10:04N 31°12' E 123°22'813.1
2015-May-22 09:25N 31°21' E 123°20'1312.7
2015-May-22 08:24N 31°33' E 123°15'2111.0
2015-May-22 06:30N 31°54' E 123°17'1310.8
2015-May-22 05:19N 32°07' E 123°16'1211.0
2015-May-22 04:12N 32°19' E 123°15'2411.9
2015-May-22 02:10N 32°43' E 123°14'3812.8
2015-May-21 23:14N 33°19' E 122°60'  
2015-May-17 03:23N 35°52' E 120°54'181 9.0
2015-May-16 07:18N 33°23' E 122°59'911.6
2015-May-16 06:32N 33°15' E 123°04'1311.7
2015-May-16 05:28N 33°04' E 123°11'1712.6
2015-May-16 04:07N 32°47' E 123°12'712.8
2015-May-16 03:33N 32°40' E 123°12'4113.6
2015-May-16 00:33N 31°59' E 123°08'1212.5
2015-May-15 23:33N 31°47' E 123°07'2510.3
2015-May-15 21:05N 31°22' E 122°59'1010.5
2015-May-15 20:09N 31°14' E 122°52'3010.3
2015-May-15 17:14N 31°06' E 122°19'913.3
2015-May-15 16:33N 31°11' E 122°10'1212.2
2015-May-15 15:33N 31°15' E 121°56'1111.4
2015-May-15 14:33N 31°19' E 121°44'10 9.9
2015-May-15 13:33N 31°24' E 121°34'10 9.6
2015-May-15 12:33N 31°30' E 121°25'1211.9
2015-May-15 11:33N 31°38' E 121°15'1414.0
2015-May-15 10:32N 31°46' E 121°01'1212.0
2015-May-15 09:33N 31°55' E 120°53'1 0.5
2015-May-15 08:33N 31°56' E 120°52'1111.2
2015-May-15 07:33N 31°60' E 120°40'1111.3
2015-May-15 06:33N 32°04' E 120°27'3 2.5
2015-May-15 05:33N 32°03' E 120°25'0 0.1
2015-May-15 04:29N 32°03' E 120°25'0 0.4
2015-May-15 03:30N 32°03' E 120°24'0 0.0
2015-May-15 02:23N 32°03' E 120°24'0 0.0
2015-May-15 01:30N 32°03' E 120°24'0 0.0
2015-May-15 00:30N 32°03' E 120°24'0 0.0
2015-May-14 23:30N 32°03' E 120°24'0 0.0
2015-May-14 22:24N 32°03' E 120°24'0 0.0
2015-May-14 20:23N 32°03' E 120°24'0 0.0
2015-May-14 19:30N 32°03' E 120°24'0 0.0
2015-May-14 18:17N 32°03' E 120°24'0 0.0
2015-May-14 17:24N 32°03' E 120°24'0 0.0
2015-May-14 16:29N 32°03' E 120°24'0 0.0
2015-May-14 15:29N 32°03' E 120°24'0 0.0
2015-May-14 14:24N 32°03' E 120°24'0 0.0
2015-May-14 13:23N 32°03' E 120°24'0 0.0
2015-May-14 12:30N 32°03' E 120°24'0 0.0
2015-May-14 11:17N 32°03' E 120°24'0 0.0
2015-May-14 10:30N 32°03' E 120°24'0 0.0
2015-May-14 09:29N 32°03' E 120°24'0 0.0
2015-May-14 08:29N 32°03' E 120°24'  
Track history (hours):
 
Tides and Currents Weather Stations Pressure Air Temp Water Temp Dewpoint Dewpoint Depression Visibility Wind Speed Wind Dir Waves Ship Positions

Regina

Last reported at 2015-May-24 08:11 UTC. Time now 2015-May-25 05:33 UTC.
Position N 22°48' E 119°40'.

Length 180 m; draft 7.1 m.

Type: Cargo ship. MMSI: 371937000.

Date/timePositionNaut miles runAvg speedWind from/ knotsBaromVisibWave heightAir tempDewpointWater temp
2015-May-24 08:11N 22°48' E 119°40'710.8
2015-May-24 07:31N 22°54' E 119°45'49811.8
2015-May-22 13:16N 30°32' E 123°21'1112.9
2015-May-22 12:27N 30°43' E 123°22'1413.0
2015-May-22 11:23N 30°56' E 123°17'1712.8
2015-May-22 10:04N 31°12' E 123°22'813.1
2015-May-22 09:25N 31°21' E 123°20'1312.7
2015-May-22 08:24N 31°33' E 123°15'2111.0
2015-May-22 06:30N 31°54' E 123°17'1310.8
2015-May-22 05:19N 32°07' E 123°16'1211.0
2015-May-22 04:12N 32°19' E 123°15'2411.9
2015-May-22 02:10N 32°43' E 123°14'3812.8
2015-May-21 23:14N 33°19' E 122°60'  
2015-May-17 03:23N 35°52' E 120°54'181 9.0
2015-May-16 07:18N 33°23' E 122°59'911.6
2015-May-16 06:32N 33°15' E 123°04'1311.7
2015-May-16 05:28N 33°04' E 123°11'1712.6
2015-May-16 04:07N 32°47' E 123°12'712.8
2015-May-16 03:33N 32°40' E 123°12'4113.6
2015-May-16 00:33N 31°59' E 123°08'1212.5
2015-May-15 23:33N 31°47' E 123°07'2510.3
2015-May-15 21:05N 31°22' E 122°59'1010.5
2015-May-15 20:09N 31°14' E 122°52'3010.3
2015-May-15 17:14N 31°06' E 122°19'913.3
2015-May-15 16:33N 31°11' E 122°10'1212.2
2015-May-15 15:33N 31°15' E 121°56'1111.4
2015-May-15 14:33N 31°19' E 121°44'10 9.9
2015-May-15 13:33N 31°24' E 121°34'10 9.6
2015-May-15 12:33N 31°30' E 121°25'1211.9
2015-May-15 11:33N 31°38' E 121°15'1414.0
2015-May-15 10:32N 31°46' E 121°01'1212.0
2015-May-15 09:33N 31°55' E 120°53'1 0.5
2015-May-15 08:33N 31°56' E 120°52'1111.2
2015-May-15 07:33N 31°60' E 120°40'1111.3
2015-May-15 06:33N 32°04' E 120°27'3 2.5
2015-May-15 05:33N 32°03' E 120°25'0 0.1
2015-May-15 04:29N 32°03' E 120°25'0 0.4
2015-May-15 03:30N 32°03' E 120°24'0 0.0
2015-May-15 02:23N 32°03' E 120°24'0 0.0
2015-May-15 01:30N 32°03' E 120°24'0 0.0
2015-May-15 00:30N 32°03' E 120°24'0 0.0
2015-May-14 23:30N 32°03' E 120°24'0 0.0
2015-May-14 22:24N 32°03' E 120°24'0 0.0
2015-May-14 20:23N 32°03' E 120°24'0 0.0
2015-May-14 19:30N 32°03' E 120°24'0 0.0
2015-May-14 18:17N 32°03' E 120°24'0 0.0
2015-May-14 17:24N 32°03' E 120°24'0 0.0
2015-May-14 16:29N 32°03' E 120°24'0 0.0
2015-May-14 15:29N 32°03' E 120°24'0 0.0
2015-May-14 14:24N 32°03' E 120°24'0 0.0
2015-May-14 13:23N 32°03' E 120°24'0 0.0
2015-May-14 12:30N 32°03' E 120°24'0 0.0
2015-May-14 11:17N 32°03' E 120°24'0 0.0
2015-May-14 10:30N 32°03' E 120°24'0 0.0
2015-May-14 09:29N 32°03' E 120°24'0 0.0
2015-May-14 08:29N 32°03' E 120°24'  

Dump ship's entire track history